sensor_id;sensor_type;location;lat;lon;timestamp;temperature;humidity
32907;DHT22;19259;51.590;5.320;2022-09-09T00:02:28;14.50;99.90
32907;DHT22;19259;51.590;5.320;2022-09-09T00:05:16;14.40;99.90
32907;DHT22;19259;51.590;5.320;2022-09-09T00:07:48;14.50;99.90
32907;DHT22;19259;51.590;5.320;2022-09-09T00:10:31;14.70;99.90
32907;DHT22;19259;51.590;5.320;2022-09-09T00:13:25;14.50;99.90
32907;DHT22;19259;51.590;5.320;2022-09-09T00:16:04;14.60;99.90
32907;DHT22;19259;51.590;5.320;2022-09-09T00:21:14;14.80;99.90
32907;DHT22;19259;51.590;5.320;2022-09-09T00:23:50;14.40;99.90
32907;DHT22;19259;51.590;5.320;2022-09-09T00:26:39;14.30;99.90
32907;DHT22;19259;51.590;5.320;2022-09-09T00:31:41;14.50;99.90
32907;DHT22;19259;51.590;5.320;2022-09-09T00:34:22;14.20;99.90
32907;DHT22;19259;51.590;5.320;2022-09-09T00:36:52;14.30;99.90
32907;DHT22;19259;51.590;5.320;2022-09-09T00:39:36;14.60;99.90
32907;DHT22;19259;51.590;5.320;2022-09-09T00:45:02;14.20;99.90
32907;DHT22;19259;51.590;5.320;2022-09-09T00:47:38;14.20;99.90
32907;DHT22;19259;51.590;5.320;2022-09-09T00:53:19;14.40;99.90
32907;DHT22;19259;51.590;5.320;2022-09-09T00:58:32;14.30;99.90
32907;DHT22;19259;51.590;5.320;2022-09-09T01:01:09;14.00;99.90
32907;DHT22;19259;51.590;5.320;2022-09-09T01:03:57;14.10;99.90
32907;DHT22;19259;51.590;5.320;2022-09-09T01:09:22;14.30;99.90
32907;DHT22;19259;51.590;5.320;2022-09-09T01:17:23;14.50;99.90
32907;DHT22;19259;51.590;5.320;2022-09-09T01:20:05;14.40;99.90
32907;DHT22;19259;51.590;5.320;2022-09-09T01:25:28;14.20;99.90
32907;DHT22;19259;51.590;5.320;2022-09-09T01:27:59;14.30;99.90
32907;DHT22;19259;51.590;5.320;2022-09-09T01:30:27;14.30;99.90
32907;DHT22;19259;51.590;5.320;2022-09-09T01:32:57;14.50;99.90
32907;DHT22;19259;51.590;5.320;2022-09-09T01:38:14;14.40;99.90
32907;DHT22;19259;51.590;5.320;2022-09-09T01:40:42;14.60;99.90
32907;DHT22;19259;51.590;5.320;2022-09-09T01:43:10;14.60;99.90
32907;DHT22;19259;51.590;5.320;2022-09-09T01:45:39;14.40;99.90
32907;DHT22;19259;51.590;5.320;2022-09-09T01:48:07;14.40;99.90
32907;DHT22;19259;51.590;5.320;2022-09-09T01:50:34;14.20;99.90
32907;DHT22;19259;51.590;5.320;2022-09-09T01:53:03;14.60;99.90
32907;DHT22;19259;51.590;5.320;2022-09-09T01:55:37;14.50;99.90
32907;DHT22;19259;51.590;5.320;2022-09-09T02:00:37;14.30;99.90
32907;DHT22;19259;51.590;5.320;2022-09-09T02:03:23;14.50;99.90
32907;DHT22;19259;51.590;5.320;2022-09-09T02:06:05;14.30;99.90
32907;DHT22;19259;51.590;5.320;2022-09-09T02:11:17;14.40;99.90
32907;DHT22;19259;51.590;5.320;2022-09-09T02:13:47;14.60;99.90
32907;DHT22;19259;51.590;5.320;2022-09-09T02:19:08;14.50;99.90
32907;DHT22;19259;51.590;5.320;2022-09-09T02:21:41;14.60;99.90
32907;DHT22;19259;51.590;5.320;2022-09-09T02:24:11;14.60;99.90
32907;DHT22;19259;51.590;5.320;2022-09-09T02:26:41;14.70;99.90
32907;DHT22;19259;51.590;5.320;2022-09-09T02:29:16;14.40;99.90
32907;DHT22;19259;51.590;5.320;2022-09-09T02:31:45;14.50;99.90
32907;DHT22;19259;51.590;5.320;2022-09-09T02:34:17;14.40;99.90
32907;DHT22;19259;51.590;5.320;2022-09-09T02:36:46;14.10;99.90
32907;DHT22;19259;51.590;5.320;2022-09-09T02:39:15;14.30;99.90
32907;DHT22;19259;51.590;5.320;2022-09-09T02:41:42;14.20;99.90
32907;DHT22;19259;51.590;5.320;2022-09-09T02:44:18;14.10;99.90
32907;DHT22;19259;51.590;5.320;2022-09-09T02:47:20;14.20;99.90
32907;DHT22;19259;51.590;5.320;2022-09-09T02:53:07;14.30;99.90
32907;DHT22;19259;51.590;5.320;2022-09-09T02:55:49;14.30;99.90
32907;DHT22;19259;51.590;5.320;2022-09-09T02:58:17;14.30;99.90
32907;DHT22;19259;51.590;5.320;2022-09-09T03:00:50;14.10;99.90
32907;DHT22;19259;51.590;5.320;2022-09-09T03:03:18;14.10;99.90
32907;DHT22;19259;51.590;5.320;2022-09-09T03:05:46;14.10;99.90
32907;DHT22;19259;51.590;5.320;2022-09-09T03:08:14;14.00;99.90
32907;DHT22;19259;51.590;5.320;2022-09-09T03:10:42;13.90;99.90
32907;DHT22;19259;51.590;5.320;2022-09-09T03:13:10;13.90;99.90
32907;DHT22;19259;51.590;5.320;2022-09-09T03:15:39;13.90;99.90
32907;DHT22;19259;51.590;5.320;2022-09-09T03:18:07;14.00;99.90
32907;DHT22;19259;51.590;5.320;2022-09-09T03:20:34;14.20;99.90
32907;DHT22;19259;51.590;5.320;2022-09-09T03:23:02;14.00;99.90
32907;DHT22;19259;51.590;5.320;2022-09-09T03:25:30;14.30;99.90
32907;DHT22;19259;51.590;5.320;2022-09-09T03:28:00;14.10;99.90
32907;DHT22;19259;51.590;5.320;2022-09-09T03:30:28;14.10;99.90
32907;DHT22;19259;51.590;5.320;2022-09-09T03:32:56;14.30;99.90
32907;DHT22;19259;51.590;5.320;2022-09-09T03:35:23;14.10;99.90
32907;DHT22;19259;51.590;5.320;2022-09-09T03:37:51;14.30;99.90
32907;DHT22;19259;51.590;5.320;2022-09-09T03:40:19;14.50;99.90
32907;DHT22;19259;51.590;5.320;2022-09-09T03:42:46;14.60;99.90
32907;DHT22;19259;51.590;5.320;2022-09-09T03:45:15;14.80;99.90
32907;DHT22;19259;51.590;5.320;2022-09-09T03:47:43;14.70;99.90
32907;DHT22;19259;51.590;5.320;2022-09-09T03:50:15;14.80;99.90
32907;DHT22;19259;51.590;5.320;2022-09-09T03:52:41;14.80;99.90
32907;DHT22;19259;51.590;5.320;2022-09-09T03:55:09;14.60;99.90
32907;DHT22;19259;51.590;5.320;2022-09-09T03:57:36;14.80;99.90
32907;DHT22;19259;51.590;5.320;2022-09-09T04:00:05;14.60;99.90
32907;DHT22;19259;51.590;5.320;2022-09-09T04:02:34;14.70;99.90
32907;DHT22;19259;51.590;5.320;2022-09-09T04:05:01;14.50;99.90
32907;DHT22;19259;51.590;5.320;2022-09-09T04:07:29;14.60;99.90
32907;DHT22;19259;51.590;5.320;2022-09-09T04:09:56;14.60;99.90
32907;DHT22;19259;51.590;5.320;2022-09-09T04:12:24;14.80;99.90
32907;DHT22;19259;51.590;5.320;2022-09-09T04:14:51;14.60;99.90
32907;DHT22;19259;51.590;5.320;2022-09-09T04:17:19;14.40;99.90
32907;DHT22;19259;51.590;5.320;2022-09-09T04:19:49;14.60;99.90
32907;DHT22;19259;51.590;5.320;2022-09-09T04:22:16;14.60;99.90
32907;DHT22;19259;51.590;5.320;2022-09-09T04:24:44;14.40;99.90
32907;DHT22;19259;51.590;5.320;2022-09-09T04:27:11;14.40;99.90
32907;DHT22;19259;51.590;5.320;2022-09-09T04:29:39;14.30;99.90
32907;DHT22;19259;51.590;5.320;2022-09-09T04:32:06;14.40;99.90
32907;DHT22;19259;51.590;5.320;2022-09-09T04:34:34;14.20;99.90
32907;DHT22;19259;51.590;5.320;2022-09-09T04:37:01;14.50;99.90
32907;DHT22;19259;51.590;5.320;2022-09-09T04:39:29;14.50;99.90
32907;DHT22;19259;51.590;5.320;2022-09-09T04:41:56;14.70;99.90
32907;DHT22;19259;51.590;5.320;2022-09-09T04:44:24;14.70;99.90
32907;DHT22;19259;51.590;5.320;2022-09-09T04:46:51;14.60;99.90
32907;DHT22;19259;51.590;5.320;2022-09-09T04:49:19;14.50;99.90
32907;DHT22;19259;51.590;5.320;2022-09-09T04:51:51;14.60;99.90
32907;DHT22;19259;51.590;5.320;2022-09-09T04:54:19;14.30;99.90
32907;DHT22;19259;51.590;5.320;2022-09-09T04:56:46;14.40;99.90
32907;DHT22;19259;51.590;5.320;2022-09-09T04:59:16;14.50;99.90
32907;DHT22;19259;51.590;5.320;2022-09-09T05:01:43;14.80;99.90
32907;DHT22;19259;51.590;5.320;2022-09-09T05:04:15;14.80;99.90
32907;DHT22;19259;51.590;5.320;2022-09-09T05:06:41;15.10;99.90
32907;DHT22;19259;51.590;5.320;2022-09-09T05:09:09;15.00;99.90
32907;DHT22;19259;51.590;5.320;2022-09-09T05:11:36;14.90;99.90
32907;DHT22;19259;51.590;5.320;2022-09-09T05:14:04;15.00;99.90
32907;DHT22;19259;51.590;5.320;2022-09-09T05:16:32;14.70;99.90
32907;DHT22;19259;51.590;5.320;2022-09-09T05:18:59;14.80;99.90
32907;DHT22;19259;51.590;5.320;2022-09-09T05:21:29;14.80;99.90
32907;DHT22;19259;51.590;5.320;2022-09-09T05:23:57;14.50;99.90
32907;DHT22;19259;51.590;5.320;2022-09-09T05:26:26;14.70;99.90
32907;DHT22;19259;51.590;5.320;2022-09-09T05:28:55;14.70;99.90
32907;DHT22;19259;51.590;5.320;2022-09-09T05:31:23;15.00;99.90
32907;DHT22;19259;51.590;5.320;2022-09-09T05:33:52;15.00;99.90
32907;DHT22;19259;51.590;5.320;2022-09-09T05:36:22;15.10;99.90
32907;DHT22;19259;51.590;5.320;2022-09-09T05:38:50;15.20;99.90
32907;DHT22;19259;51.590;5.320;2022-09-09T05:41:20;15.20;99.90
32907;DHT22;19259;51.590;5.320;2022-09-09T05:43:52;15.10;99.90
32907;DHT22;19259;51.590;5.320;2022-09-09T05:46:21;15.00;99.90
32907;DHT22;19259;51.590;5.320;2022-09-09T05:48:50;14.80;99.90
32907;DHT22;19259;51.590;5.320;2022-09-09T05:51:20;15.00;99.90
32907;DHT22;19259;51.590;5.320;2022-09-09T05:53:49;14.80;99.90
32907;DHT22;19259;51.590;5.320;2022-09-09T05:56:20;15.10;99.90
32907;DHT22;19259;51.590;5.320;2022-09-09T05:58:50;15.00;99.90
32907;DHT22;19259;51.590;5.320;2022-09-09T06:01:23;15.20;99.90
32907;DHT22;19259;51.590;5.320;2022-09-09T06:03:56;15.10;99.90
32907;DHT22;19259;51.590;5.320;2022-09-09T06:06:33;15.10;99.90
32907;DHT22;19259;51.590;5.320;2022-09-09T06:09:04;15.20;99.90
32907;DHT22;19259;51.590;5.320;2022-09-09T06:11:38;15.10;99.90
32907;DHT22;19259;51.590;5.320;2022-09-09T06:14:06;15.10;99.90
32907;DHT22;19259;51.590;5.320;2022-09-09T06:16:34;15.10;99.90
32907;DHT22;19259;51.590;5.320;2022-09-09T06:19:04;15.30;99.90
32907;DHT22;19259;51.590;5.320;2022-09-09T06:21:35;15.50;99.90
32907;DHT22;19259;51.590;5.320;2022-09-09T06:24:06;15.40;99.90
32907;DHT22;19259;51.590;5.320;2022-09-09T06:26:37;15.40;99.90
32907;DHT22;19259;51.590;5.320;2022-09-09T06:29:07;15.30;99.90
32907;DHT22;19259;51.590;5.320;2022-09-09T06:31:36;15.30;99.90
32907;DHT22;19259;51.590;5.320;2022-09-09T06:34:08;15.50;99.90
32907;DHT22;19259;51.590;5.320;2022-09-09T06:36:38;15.50;99.90
32907;DHT22;19259;51.590;5.320;2022-09-09T06:39:06;15.70;99.90
32907;DHT22;19259;51.590;5.320;2022-09-09T06:41:36;15.70;99.90
32907;DHT22;19259;51.590;5.320;2022-09-09T06:44:05;15.70;99.90
32907;DHT22;19259;51.590;5.320;2022-09-09T06:46:32;15.60;99.90
32907;DHT22;19259;51.590;5.320;2022-09-09T06:49:02;15.90;99.90
32907;DHT22;19259;51.590;5.320;2022-09-09T06:51:35;15.90;99.90
32907;DHT22;19259;51.590;5.320;2022-09-09T06:54:00;16.00;99.90
32907;DHT22;19259;51.590;5.320;2022-09-09T06:56:31;16.20;99.90
32907;DHT22;19259;51.590;5.320;2022-09-09T06:59:01;16.30;99.90
32907;DHT22;19259;51.590;5.320;2022-09-09T07:01:34;16.30;99.90
32907;DHT22;19259;51.590;5.320;2022-09-09T07:04:04;16.40;99.90
32907;DHT22;19259;51.590;5.320;2022-09-09T07:06:36;16.40;99.90
32907;DHT22;19259;51.590;5.320;2022-09-09T07:09:06;16.30;99.90
32907;DHT22;19259;51.590;5.320;2022-09-09T07:11:40;16.30;99.90
32907;DHT22;19259;51.590;5.320;2022-09-09T07:14:14;16.40;99.90
32907;DHT22;19259;51.590;5.320;2022-09-09T07:16:43;16.40;99.90
32907;DHT22;19259;51.590;5.320;2022-09-09T07:19:12;16.40;99.90
32907;DHT22;19259;51.590;5.320;2022-09-09T07:21:42;16.50;99.90
32907;DHT22;19259;51.590;5.320;2022-09-09T07:24:10;16.20;99.90
32907;DHT22;19259;51.590;5.320;2022-09-09T07:26:39;16.20;99.90
32907;DHT22;19259;51.590;5.320;2022-09-09T07:29:07;16.10;99.90
32907;DHT22;19259;51.590;5.320;2022-09-09T07:31:38;16.20;99.90
32907;DHT22;19259;51.590;5.320;2022-09-09T07:34:06;16.20;99.90
32907;DHT22;19259;51.590;5.320;2022-09-09T07:36:36;16.10;99.90
32907;DHT22;19259;51.590;5.320;2022-09-09T07:39:09;16.10;99.90
32907;DHT22;19259;51.590;5.320;2022-09-09T07:41:40;16.10;99.90
32907;DHT22;19259;51.590;5.320;2022-09-09T07:44:10;16.10;99.90
32907;DHT22;19259;51.590;5.320;2022-09-09T07:46:38;16.30;99.90
32907;DHT22;19259;51.590;5.320;2022-09-09T07:49:06;16.50;99.90
32907;DHT22;19259;51.590;5.320;2022-09-09T07:51:37;16.60;99.90
32907;DHT22;19259;51.590;5.320;2022-09-09T07:54:07;16.70;99.90
32907;DHT22;19259;51.590;5.320;2022-09-09T07:56:36;16.90;99.90
32907;DHT22;19259;51.590;5.320;2022-09-09T07:59:04;16.90;99.90
32907;DHT22;19259;51.590;5.320;2022-09-09T08:01:39;17.00;99.90
32907;DHT22;19259;51.590;5.320;2022-09-09T08:04:19;17.20;99.90
32907;DHT22;19259;51.590;5.320;2022-09-09T08:06:50;17.40;99.90
32907;DHT22;19259;51.590;5.320;2022-09-09T08:09:20;17.30;99.90
32907;DHT22;19259;51.590;5.320;2022-09-09T08:11:48;17.60;99.90
32907;DHT22;19259;51.590;5.320;2022-09-09T08:14:15;17.40;99.90
32907;DHT22;19259;51.590;5.320;2022-09-09T08:16:46;17.40;99.90
32907;DHT22;19259;51.590;5.320;2022-09-09T08:19:14;17.50;99.90
32907;DHT22;19259;51.590;5.320;2022-09-09T08:21:43;17.50;99.90
32907;DHT22;19259;51.590;5.320;2022-09-09T08:24:15;17.50;99.90
32907;DHT22;19259;51.590;5.320;2022-09-09T08:26:45;17.30;99.90
32907;DHT22;19259;51.590;5.320;2022-09-09T08:29:14;17.30;99.90
32907;DHT22;19259;51.590;5.320;2022-09-09T08:31:50;17.20;99.90
32907;DHT22;19259;51.590;5.320;2022-09-09T08:34:19;17.40;99.90
32907;DHT22;19259;51.590;5.320;2022-09-09T08:36:48;17.40;99.90
32907;DHT22;19259;51.590;5.320;2022-09-09T08:39:20;17.50;99.90
32907;DHT22;19259;51.590;5.320;2022-09-09T08:42:12;17.60;99.90
32907;DHT22;19259;51.590;5.320;2022-09-09T08:47:37;17.80;99.90
32907;DHT22;19259;51.590;5.320;2022-09-09T08:50:19;17.70;99.90
32907;DHT22;19259;51.590;5.320;2022-09-09T08:58:18;17.40;99.90
32907;DHT22;19259;51.590;5.320;2022-09-09T09:00:52;17.30;99.90
32907;DHT22;19259;51.590;5.320;2022-09-09T09:12:01;17.30;99.90
32907;DHT22;19259;51.590;5.320;2022-09-09T09:14:35;17.20;99.90
32907;DHT22;19259;51.590;5.320;2022-09-09T09:19:35;17.30;99.90
32907;DHT22;19259;51.590;5.320;2022-09-09T09:22:19;17.40;99.90
32907;DHT22;19259;51.590;5.320;2022-09-09T09:24:56;17.40;99.90
32907;DHT22;19259;51.590;5.320;2022-09-09T09:27:33;17.40;99.90
32907;DHT22;19259;51.590;5.320;2022-09-09T09:30:14;17.30;99.90
32907;DHT22;19259;51.590;5.320;2022-09-09T09:32:33;17.40;99.90
32907;DHT22;19259;51.590;5.320;2022-09-09T09:35:06;17.40;99.90
32907;DHT22;19259;51.590;5.320;2022-09-09T09:37:34;17.40;99.90
32907;DHT22;19259;51.590;5.320;2022-09-09T09:40:16;17.50;99.90
32907;DHT22;19259;51.590;5.320;2022-09-09T09:43:01;17.40;99.90
32907;DHT22;19259;51.590;5.320;2022-09-09T09:45:32;17.30;99.90
32907;DHT22;19259;51.590;5.320;2022-09-09T09:48:05;17.30;99.90
32907;DHT22;19259;51.590;5.320;2022-09-09T09:50:34;17.30;99.90
32907;DHT22;19259;51.590;5.320;2022-09-09T09:53:17;17.10;99.90
32907;DHT22;19259;51.590;5.320;2022-09-09T09:55:36;17.00;99.90
32907;DHT22;19259;51.590;5.320;2022-09-09T09:58:13;17.10;99.90
32907;DHT22;19259;51.590;5.320;2022-09-09T10:00:36;17.10;99.90
32907;DHT22;19259;51.590;5.320;2022-09-09T10:05:53;16.80;99.90
32907;DHT22;19259;51.590;5.320;2022-09-09T10:08:24;16.70;99.90
32907;DHT22;19259;51.590;5.320;2022-09-09T10:14:07;16.80;99.90
32907;DHT22;19259;51.590;5.320;2022-09-09T10:16:57;16.70;99.90
32907;DHT22;19259;51.590;5.320;2022-09-09T10:19:34;16.90;99.90
32907;DHT22;19259;51.590;5.320;2022-09-09T10:25:14;16.70;99.90
32907;DHT22;19259;51.590;5.320;2022-09-09T10:33:04;16.70;99.90
32907;DHT22;19259;51.590;5.320;2022-09-09T10:35:33;16.70;99.90
32907;DHT22;19259;51.590;5.320;2022-09-09T10:38:22;17.00;99.90
32907;DHT22;19259;51.590;5.320;2022-09-09T10:49:08;17.20;99.90
32907;DHT22;19259;51.590;5.320;2022-09-09T10:51:37;17.20;99.90
32907;DHT22;19259;51.590;5.320;2022-09-09T10:56:58;17.50;99.90
32907;DHT22;19259;51.590;5.320;2022-09-09T10:59:33;17.30;99.90
32907;DHT22;19259;51.590;5.320;2022-09-09T11:02:15;17.30;99.90
32907;DHT22;19259;51.590;5.320;2022-09-09T11:04:47;17.40;99.90
32907;DHT22;19259;51.590;5.320;2022-09-09T11:07:20;17.10;99.90
32907;DHT22;19259;51.590;5.320;2022-09-09T11:09:47;17.10;99.90
32907;DHT22;19259;51.590;5.320;2022-09-09T11:12:18;17.20;99.90
32907;DHT22;19259;51.590;5.320;2022-09-09T11:14:53;17.50;99.90
32907;DHT22;19259;51.590;5.320;2022-09-09T11:17:39;17.60;99.90
32907;DHT22;19259;51.590;5.320;2022-09-09T11:20:05;17.60;99.90
32907;DHT22;19259;51.590;5.320;2022-09-09T11:22:43;17.70;99.90
32907;DHT22;19259;51.590;5.320;2022-09-09T11:25:18;17.50;99.90
32907;DHT22;19259;51.590;5.320;2022-09-09T11:30:59;17.20;99.90
32907;DHT22;19259;51.590;5.320;2022-09-09T11:33:49;17.20;99.90
32907;DHT22;19259;51.590;5.320;2022-09-09T11:36:42;17.20;99.90
32907;DHT22;19259;51.590;5.320;2022-09-09T11:39:35;17.20;99.90
32907;DHT22;19259;51.590;5.320;2022-09-09T11:44:43;17.30;99.90
32907;DHT22;19259;51.590;5.320;2022-09-09T11:47:20;17.10;99.90
32907;DHT22;19259;51.590;5.320;2022-09-09T11:49:54;17.20;99.90
32907;DHT22;19259;51.590;5.320;2022-09-09T11:52:39;17.30;99.90
32907;DHT22;19259;51.590;5.320;2022-09-09T11:55:32;17.40;99.90
32907;DHT22;19259;51.590;5.320;2022-09-09T11:57:39;17.40;99.90
32907;DHT22;19259;51.590;5.320;2022-09-09T12:00:27;17.40;99.90
32907;DHT22;19259;51.590;5.320;2022-09-09T12:02:47;17.60;99.90
32907;DHT22;19259;51.590;5.320;2022-09-09T12:05:11;17.50;99.90
32907;DHT22;19259;51.590;5.320;2022-09-09T12:07:57;17.60;99.90
32907;DHT22;19259;51.590;5.320;2022-09-09T12:10:31;17.50;99.90
32907;DHT22;19259;51.590;5.320;2022-09-09T12:13:17;17.50;99.90
32907;DHT22;19259;51.590;5.320;2022-09-09T12:15:53;17.50;99.90
32907;DHT22;19259;51.590;5.320;2022-09-09T12:18:36;17.70;99.90
32907;DHT22;19259;51.590;5.320;2022-09-09T12:24:10;18.30;99.90
32907;DHT22;19259;51.590;5.320;2022-09-09T12:26:55;18.20;99.90
32907;DHT22;19259;51.590;5.320;2022-09-09T12:32:17;18.10;99.90
32907;DHT22;19259;51.590;5.320;2022-09-09T12:34:47;18.30;99.90
32907;DHT22;19259;51.590;5.320;2022-09-09T12:37:36;18.30;99.90
32907;DHT22;19259;51.590;5.320;2022-09-09T12:40:19;18.50;99.90
32907;DHT22;19259;51.590;5.320;2022-09-09T12:42:47;18.70;99.90
32907;DHT22;19259;51.590;5.320;2022-09-09T12:45:18;18.60;99.90
32907;DHT22;19259;51.590;5.320;2022-09-09T12:47:57;18.60;99.90
32907;DHT22;19259;51.590;5.320;2022-09-09T12:50:32;18.40;99.90
32907;DHT22;19259;51.590;5.320;2022-09-09T12:53:07;18.40;99.90
32907;DHT22;19259;51.590;5.320;2022-09-09T12:55:32;18.30;99.90
32907;DHT22;19259;51.590;5.320;2022-09-09T12:58:02;18.50;99.90
32907;DHT22;19259;51.590;5.320;2022-09-09T13:00:33;18.50;99.90
32907;DHT22;19259;51.590;5.320;2022-09-09T13:03:13;18.60;99.90
32907;DHT22;19259;51.590;5.320;2022-09-09T13:05:36;18.80;99.90
32907;DHT22;19259;51.590;5.320;2022-09-09T13:08:15;19.20;99.90
32907;DHT22;19259;51.590;5.320;2022-09-09T13:13:26;19.90;99.90
32907;DHT22;19259;51.590;5.320;2022-09-09T13:15:58;20.00;99.90
32907;DHT22;19259;51.590;5.320;2022-09-09T13:18:30;19.90;99.90
32907;DHT22;19259;51.590;5.320;2022-09-09T13:21:00;19.90;99.90
32907;DHT22;19259;51.590;5.320;2022-09-09T13:23:34;19.70;99.90
32907;DHT22;19259;51.590;5.320;2022-09-09T13:26:05;19.70;99.90
32907;DHT22;19259;51.590;5.320;2022-09-09T13:28:34;19.80;99.90
32907;DHT22;19259;51.590;5.320;2022-09-09T13:31:05;20.00;99.90
32907;DHT22;19259;51.590;5.320;2022-09-09T13:33:36;20.10;99.90
32907;DHT22;19259;51.590;5.320;2022-09-09T13:41:29;19.70;99.90
32907;DHT22;19259;51.590;5.320;2022-09-09T13:43:57;19.50;99.90
32907;DHT22;19259;51.590;5.320;2022-09-09T13:46:36;19.40;99.90
32907;DHT22;19259;51.590;5.320;2022-09-09T13:51:48;19.60;99.90
32907;DHT22;19259;51.590;5.320;2022-09-09T13:54:19;19.50;99.90
32907;DHT22;19259;51.590;5.320;2022-09-09T13:56:47;19.50;99.90
32907;DHT22;19259;51.590;5.320;2022-09-09T13:59:18;19.20;99.90
32907;DHT22;19259;51.590;5.320;2022-09-09T14:01:51;19.00;99.90
32907;DHT22;19259;51.590;5.320;2022-09-09T14:04:19;19.00;99.90
32907;DHT22;19259;51.590;5.320;2022-09-09T14:06:50;18.90;99.90
32907;DHT22;19259;51.590;5.320;2022-09-09T14:09:18;18.90;99.90
32907;DHT22;19259;51.590;5.320;2022-09-09T14:11:46;18.90;99.90
32907;DHT22;19259;51.590;5.320;2022-09-09T14:14:13;19.00;99.90
32907;DHT22;19259;51.590;5.320;2022-09-09T14:16:42;19.00;99.90
32907;DHT22;19259;51.590;5.320;2022-09-09T14:19:10;19.00;99.90
32907;DHT22;19259;51.590;5.320;2022-09-09T14:21:38;19.10;99.90
32907;DHT22;19259;51.590;5.320;2022-09-09T14:24:05;19.10;99.90
32907;DHT22;19259;51.590;5.320;2022-09-09T14:26:33;19.20;99.90
32907;DHT22;19259;51.590;5.320;2022-09-09T14:29:00;19.30;99.90
32907;DHT22;19259;51.590;5.320;2022-09-09T14:31:30;19.50;99.90
32907;DHT22;19259;51.590;5.320;2022-09-09T14:33:59;19.60;99.90
32907;DHT22;19259;51.590;5.320;2022-09-09T14:36:26;19.80;99.90
32907;DHT22;19259;51.590;5.320;2022-09-09T14:38:54;19.70;99.90
32907;DHT22;19259;51.590;5.320;2022-09-09T14:41:21;19.60;99.90
32907;DHT22;19259;51.590;5.320;2022-09-09T14:43:49;19.50;99.90
32907;DHT22;19259;51.590;5.320;2022-09-09T14:46:19;19.50;99.90
32907;DHT22;19259;51.590;5.320;2022-09-09T14:48:47;19.30;99.90
32907;DHT22;19259;51.590;5.320;2022-09-09T14:51:20;19.30;99.90
32907;DHT22;19259;51.590;5.320;2022-09-09T14:53:52;19.20;99.90
32907;DHT22;19259;51.590;5.320;2022-09-09T14:56:22;19.10;99.90
32907;DHT22;19259;51.590;5.320;2022-09-09T14:58:52;18.90;99.90
32907;DHT22;19259;51.590;5.320;2022-09-09T15:01:20;18.80;99.90
32907;DHT22;19259;51.590;5.320;2022-09-09T15:03:51;18.40;99.90
32907;DHT22;19259;51.590;5.320;2022-09-09T15:06:22;18.30;99.90
32907;DHT22;19259;51.590;5.320;2022-09-09T15:08:50;18.20;99.90
32907;DHT22;19259;51.590;5.320;2022-09-09T15:11:19;18.10;99.90
32907;DHT22;19259;51.590;5.320;2022-09-09T15:13:47;18.00;99.90
32907;DHT22;19259;51.590;5.320;2022-09-09T15:16:20;18.00;99.90
32907;DHT22;19259;51.590;5.320;2022-09-09T15:18:50;17.70;99.90
32907;DHT22;19259;51.590;5.320;2022-09-09T15:21:21;17.60;99.90
32907;DHT22;19259;51.590;5.320;2022-09-09T15:23:49;17.30;99.90
32907;DHT22;19259;51.590;5.320;2022-09-09T15:26:18;17.40;99.90
32907;DHT22;19259;51.590;5.320;2022-09-09T15:28:47;17.20;99.90
32907;DHT22;19259;51.590;5.320;2022-09-09T15:31:21;17.10;99.90
32907;DHT22;19259;51.590;5.320;2022-09-09T15:33:53;17.10;99.90
32907;DHT22;19259;51.590;5.320;2022-09-09T15:36:25;16.90;99.90
32907;DHT22;19259;51.590;5.320;2022-09-09T15:38:53;17.10;99.90
32907;DHT22;19259;51.590;5.320;2022-09-09T15:41:21;17.10;99.90
32907;DHT22;19259;51.590;5.320;2022-09-09T15:43:51;17.20;99.90
32907;DHT22;19259;51.590;5.320;2022-09-09T15:46:34;17.40;99.90
32907;DHT22;19259;51.590;5.320;2022-09-09T15:49:08;17.40;99.90
32907;DHT22;19259;51.590;5.320;2022-09-09T15:51:38;17.20;99.90
32907;DHT22;19259;51.590;5.320;2022-09-09T15:54:06;17.10;99.90
32907;DHT22;19259;51.590;5.320;2022-09-09T15:56:33;17.40;99.90
32907;DHT22;19259;51.590;5.320;2022-09-09T15:59:02;17.50;99.90
32907;DHT22;19259;51.590;5.320;2022-09-09T16:01:31;17.60;99.90
32907;DHT22;19259;51.590;5.320;2022-09-09T16:03:59;17.80;99.90
32907;DHT22;19259;51.590;5.320;2022-09-09T16:06:28;17.90;99.90
32907;DHT22;19259;51.590;5.320;2022-09-09T16:08:57;17.80;99.90
32907;DHT22;19259;51.590;5.320;2022-09-09T16:11:29;18.10;99.90
32907;DHT22;19259;51.590;5.320;2022-09-09T16:13:58;18.00;99.90
32907;DHT22;19259;51.590;5.320;2022-09-09T16:16:28;17.90;99.90
32907;DHT22;19259;51.590;5.320;2022-09-09T16:19:02;17.90;99.90
32907;DHT22;19259;51.590;5.320;2022-09-09T16:21:32;17.70;99.90
32907;DHT22;19259;51.590;5.320;2022-09-09T16:24:01;17.90;99.90
32907;DHT22;19259;51.590;5.320;2022-09-09T16:26:32;17.90;99.90
32907;DHT22;19259;51.590;5.320;2022-09-09T16:29:00;17.80;99.90
32907;DHT22;19259;51.590;5.320;2022-09-09T16:31:29;17.60;99.90
32907;DHT22;19259;51.590;5.320;2022-09-09T16:33:58;17.60;99.90
32907;DHT22;19259;51.590;5.320;2022-09-09T16:36:28;17.50;99.90
32907;DHT22;19259;51.590;5.320;2022-09-09T16:39:01;17.40;99.90
32907;DHT22;19259;51.590;5.320;2022-09-09T16:41:29;17.50;99.90
32907;DHT22;19259;51.590;5.320;2022-09-09T16:43:59;17.60;99.90
32907;DHT22;19259;51.590;5.320;2022-09-09T16:46:28;17.60;99.90
32907;DHT22;19259;51.590;5.320;2022-09-09T16:48:57;17.50;99.90
32907;DHT22;19259;51.590;5.320;2022-09-09T16:51:27;17.30;99.90
32907;DHT22;19259;51.590;5.320;2022-09-09T16:54:00;17.30;99.90
32907;DHT22;19259;51.590;5.320;2022-09-09T16:56:30;17.20;99.90
32907;DHT22;19259;51.590;5.320;2022-09-09T16:59:01;17.00;99.90
32907;DHT22;19259;51.590;5.320;2022-09-09T17:01:31;16.90;99.90
32907;DHT22;19259;51.590;5.320;2022-09-09T17:04:01;17.10;99.90
32907;DHT22;19259;51.590;5.320;2022-09-09T17:06:30;16.90;99.90
32907;DHT22;19259;51.590;5.320;2022-09-09T17:09:01;16.80;99.90
32907;DHT22;19259;51.590;5.320;2022-09-09T17:11:29;16.60;99.90
32907;DHT22;19259;51.590;5.320;2022-09-09T17:13:58;16.60;99.90
32907;DHT22;19259;51.590;5.320;2022-09-09T17:16:29;16.80;99.90
32907;DHT22;19259;51.590;5.320;2022-09-09T17:18:57;16.90;99.90
32907;DHT22;19259;51.590;5.320;2022-09-09T17:21:27;17.10;99.90
32907;DHT22;19259;51.590;5.320;2022-09-09T17:23:56;17.20;99.90
32907;DHT22;19259;51.590;5.320;2022-09-09T17:26:29;17.30;99.90
32907;DHT22;19259;51.590;5.320;2022-09-09T17:28:57;17.20;99.90
32907;DHT22;19259;51.590;5.320;2022-09-09T17:31:27;17.30;99.90
32907;DHT22;19259;51.590;5.320;2022-09-09T17:33:56;17.20;99.90
32907;DHT22;19259;51.590;5.320;2022-09-09T17:36:31;17.30;99.90
32907;DHT22;19259;51.590;5.320;2022-09-09T17:38:55;17.20;99.90
32907;DHT22;19259;51.590;5.320;2022-09-09T17:41:25;17.20;99.90
32907;DHT22;19259;51.590;5.320;2022-09-09T17:43:54;17.40;99.90